createdAt,value
2023-04-28T00:00:04.647Z,101710.81
2023-04-28T00:02:32.998Z,101713.09
2023-04-28T00:05:00.888Z,101697.75
2023-04-28T00:07:28.740Z,101696.06
2023-04-28T00:09:57.069Z,101708.09
2023-04-28T00:12:24.926Z,101700.34
2023-04-28T00:14:52.674Z,101702.50
2023-04-28T00:17:22.208Z,101702.78
2023-04-28T00:19:51.500Z,101699.50
2023-04-28T00:22:19.357Z,101693.88
2023-04-28T00:24:47.254Z,101679.28
2023-04-28T00:27:15.297Z,101681.59
2023-04-28T00:29:43.128Z,101667.13
2023-04-28T00:32:11.069Z,101663.25
2023-04-28T00:34:40.538Z,101660.94
2023-04-28T00:37:08.410Z,101657.06
2023-04-28T00:39:36.097Z,101654.91
2023-04-28T00:42:04.895Z,101651.19
2023-04-28T00:44:32.864Z,101643.16
2023-04-28T00:47:00.802Z,101646.63
2023-04-28T00:49:28.694Z,101645.47
2023-04-28T00:51:58.717Z,101636.44
2023-04-28T00:54:27.077Z,101632.84
2023-04-28T00:56:56.387Z,101632.56
2023-04-28T00:59:24.103Z,101629.13
2023-04-28T01:01:52.062Z,101613.22
2023-04-28T01:04:22.305Z,101608.22
2023-04-28T01:06:52.042Z,101609.34
2023-04-28T01:09:21.410Z,101607.78
2023-04-28T01:11:51.702Z,101606.50
2023-04-28T01:14:33.454Z,101607.66
2023-04-28T01:17:01.760Z,101597.31
2023-04-28T01:19:29.781Z,101604.06
2023-04-28T01:21:58.155Z,101609.06
2023-04-28T01:24:28.243Z,101607.50
2023-04-28T01:26:59.320Z,101612.53
2023-04-28T01:29:27.827Z,101608.34
2023-04-28T01:31:55.805Z,101606.34
2023-04-28T01:34:23.715Z,101601.22
2023-04-28T01:36:51.885Z,101599.31
2023-04-28T01:39:20.353Z,101596.47
2023-04-28T01:41:50.116Z,101579.56
2023-04-28T01:44:18.741Z,101587.03
2023-04-28T01:46:49.943Z,101584.16
2023-04-28T01:49:18.304Z,101578.13
2023-04-28T01:51:46.384Z,101571.81
2023-04-28T01:54:15.350Z,101566.53
2023-04-28T01:56:44.043Z,101559.53
2023-04-28T01:59:16.200Z,101544.63
2023-04-28T02:01:44.022Z,101542.47
2023-04-28T02:04:11.937Z,101536.34
2023-04-28T02:06:40.410Z,101531.59
2023-04-28T02:09:08.332Z,101526.44
2023-04-28T02:11:36.171Z,101534.59
2023-04-28T02:14:04.292Z,101523.75
2023-04-28T02:16:34.297Z,101520.16
2023-04-28T02:19:02.089Z,101514.28
2023-04-28T02:21:29.883Z,101494.09
2023-04-28T02:23:58.182Z,101488.09
2023-04-28T02:26:26.306Z,101491.66
2023-04-28T02:28:54.378Z,101491.69
2023-04-28T02:31:22.269Z,101487.66
2023-04-28T02:33:51.872Z,101494.97
2023-04-28T02:36:20.069Z,101489.97
2023-04-28T02:38:48.235Z,101489.97
2023-04-28T02:41:16.183Z,101490.38
2023-04-28T02:43:44.170Z,101485.50
2023-04-28T02:46:12.290Z,101476.47
2023-04-28T02:48:40.784Z,101485.38
2023-04-28T02:51:10.812Z,101470.19
2023-04-28T02:53:39.205Z,101467.19
2023-04-28T02:56:07.557Z,101460.16
2023-04-28T02:58:35.686Z,101464.59
2023-04-28T03:01:03.547Z,101463.03
2023-04-28T03:03:31.488Z,101452.47
2023-04-28T03:05:59.348Z,101444.41
2023-04-28T03:08:28.584Z,101448.31
2023-04-28T03:10:56.726Z,101446.84
2023-04-28T03:13:25.477Z,101444.38
2023-04-28T03:15:53.695Z,101444.44
2023-04-28T03:18:22.477Z,101434.41
2023-04-28T03:20:50.424Z,101432.13
2023-04-28T03:23:18.626Z,101431.81
2023-04-28T03:25:48.096Z,101422.50
2023-04-28T03:28:16.270Z,101416.91
2023-04-28T03:30:44.123Z,101419.06
2023-04-28T03:33:11.879Z,101407.50
2023-04-28T03:35:40.097Z,101411.38
2023-04-28T03:38:08.046Z,101404.19
2023-04-28T03:40:36.937Z,101396.06
2023-04-28T03:43:28.678Z,101396.47
2023-04-28T03:46:12.032Z,101394.47
2023-04-28T03:48:39.772Z,101387.19
2023-04-28T03:51:07.544Z,101391.47
2023-04-28T03:53:35.342Z,101392.66
2023-04-28T03:56:03.276Z,101390.34
2023-04-28T03:58:32.423Z,101390.34
2023-04-28T04:01:02.195Z,101380.16
2023-04-28T04:03:30.137Z,101376.13
2023-04-28T04:05:58.305Z,101382.75
2023-04-28T04:08:26.451Z,101382.31
2023-04-28T04:10:54.910Z,101381.34
2023-04-28T04:13:23.194Z,101381.47
2023-04-28T04:15:53.661Z,101373.59
2023-04-28T04:18:24.060Z,101379.19
2023-04-28T04:21:21.105Z,101367.16
2023-04-28T04:23:51.243Z,101366.75
2023-04-28T04:26:19.504Z,101374.00
2023-04-28T04:28:49.841Z,101360.00
2023-04-28T04:31:22.780Z,101359.41
2023-04-28T04:33:52.136Z,101357.28
2023-04-28T04:36:21.630Z,101356.44
2023-04-28T04:38:52.649Z,101353.53
2023-04-28T04:41:22.964Z,101354.09
2023-04-28T04:43:57.011Z,101349.38
2023-04-28T04:46:31.870Z,101342.63
2023-04-28T04:48:59.999Z,101342.81
2023-04-28T04:51:28.053Z,101338.50
2023-04-28T04:53:56.564Z,101344.78
2023-04-28T04:56:24.538Z,101336.78
2023-04-28T04:58:53.357Z,101336.47
2023-04-28T05:01:35.912Z,101330.72
2023-04-28T05:04:03.842Z,101332.88
2023-04-28T05:06:32.374Z,101328.31
2023-04-28T05:09:00.183Z,101326.44
2023-04-28T05:11:28.262Z,101325.00
2023-04-28T05:13:56.451Z,101324.13
2023-04-28T05:16:24.984Z,101310.25
2023-04-28T05:19:03.627Z,101303.28
2023-04-28T05:21:32.685Z,101303.28
2023-04-28T05:24:00.987Z,101307.44
2023-04-28T05:26:29.398Z,101317.72
2023-04-28T05:29:01.777Z,101310.00
2023-04-28T05:31:30.890Z,101316.47
2023-04-28T05:33:59.824Z,101316.31
2023-04-28T05:36:29.342Z,101313.16
2023-04-28T05:38:57.804Z,101317.00
2023-04-28T05:41:25.668Z,101306.81
2023-04-28T05:43:53.579Z,101302.66
2023-04-28T05:46:30.196Z,101296.41
2023-04-28T05:49:00.140Z,101304.25
2023-04-28T05:51:34.036Z,101299.81
2023-04-28T05:54:03.054Z,101289.50
2023-04-28T05:56:31.497Z,101294.94
2023-04-28T05:59:04.019Z,101293.31
2023-04-28T06:01:31.954Z,101295.56
2023-04-28T06:03:59.923Z,101296.91
2023-04-28T06:06:29.029Z,101286.03
2023-04-28T06:08:58.273Z,101288.63
2023-04-28T06:11:27.312Z,101290.75
2023-04-28T06:13:55.424Z,101280.97
2023-04-28T06:16:23.588Z,101281.97
2023-04-28T06:18:53.245Z,101266.38
2023-04-28T06:21:22.310Z,101267.47
2023-04-28T06:23:50.419Z,101267.88
2023-04-28T06:26:20.101Z,101278.94
2023-04-28T06:28:47.946Z,101271.06
2023-04-28T06:31:16.388Z,101270.03
2023-04-28T06:33:44.226Z,101260.00
2023-04-28T06:36:15.567Z,101262.47
2023-04-28T06:38:44.510Z,101263.59
2023-04-28T06:41:12.627Z,101262.44
2023-04-28T06:43:43.814Z,101265.56
2023-04-28T06:46:15.671Z,101271.56
2023-04-28T06:48:44.007Z,101259.81
2023-04-28T06:51:11.759Z,101251.66
2023-04-28T06:53:39.766Z,101247.88
2023-04-28T06:56:11.169Z,101245.28
2023-04-28T06:58:39.516Z,101244.72
2023-04-28T07:01:08.622Z,101240.81
2023-04-28T07:03:36.454Z,101240.47
2023-04-28T07:06:04.973Z,101244.44
2023-04-28T07:08:33.158Z,101237.28
2023-04-28T07:11:04.228Z,101235.63
2023-04-28T07:13:32.040Z,101230.19
2023-04-28T07:16:00.277Z,101230.75
2023-04-28T07:18:29.954Z,101244.75
2023-04-28T07:20:58.093Z,101240.53
2023-04-28T07:23:26.432Z,101237.66
2023-04-28T07:25:55.241Z,101237.94
2023-04-28T07:28:23.732Z,101240.34
2023-04-28T07:30:52.037Z,101235.72
2023-04-28T07:33:20.020Z,101239.50
2023-04-28T07:35:49.606Z,101238.31
2023-04-28T07:38:18.487Z,101240.72
2023-04-28T07:40:46.572Z,101234.59
2023-04-28T07:43:14.736Z,101228.97
2023-04-28T07:45:45.655Z,101218.91
2023-04-28T07:48:13.691Z,101206.63
2023-04-28T07:50:41.615Z,101213.78
2023-04-28T07:53:10.878Z,101213.94
2023-04-28T07:55:38.847Z,101205.94
2023-04-28T07:58:06.615Z,101212.94
2023-04-28T08:00:34.431Z,101207.88
2023-04-28T08:03:02.530Z,101205.53
2023-04-28T08:05:30.564Z,101201.06
2023-04-28T08:07:58.409Z,101205.06
2023-04-28T08:10:27.716Z,101210.00
2023-04-28T08:12:55.515Z,101201.00
2023-04-28T08:15:23.668Z,101209.78
2023-04-28T08:17:51.634Z,101209.66
2023-04-28T08:20:24.474Z,101210.34
2023-04-28T08:22:52.883Z,101204.72
2023-04-28T08:25:20.727Z,101211.41
2023-04-28T08:27:50.019Z,101211.63
2023-04-28T08:30:17.946Z,101209.94
2023-04-28T08:32:46.063Z,101215.06
2023-04-28T08:35:15.450Z,101218.66
2023-04-28T08:37:43.270Z,101215.75
2023-04-28T08:40:11.566Z,101209.66
2023-04-28T08:42:39.811Z,101216.50
2023-04-28T08:45:14.648Z,101217.56
2023-04-28T08:47:46.111Z,101213.66
2023-04-28T08:50:17.994Z,101207.34
2023-04-28T08:52:45.914Z,101206.72
2023-04-28T08:55:14.455Z,101204.81
2023-04-28T08:57:45.785Z,101196.81
2023-04-28T09:00:16.002Z,101192.06
2023-04-28T09:02:44.260Z,101201.28
2023-04-28T09:05:13.804Z,101197.03
2023-04-28T09:07:42.638Z,101210.00
2023-04-28T09:10:19.148Z,101205.28
2023-04-28T09:12:47.790Z,101190.44
2023-04-28T09:15:33.947Z,101180.06
2023-04-28T09:18:03.385Z,101170.03
2023-04-28T09:20:32.649Z,101163.75
2023-04-28T09:23:15.271Z,101167.16
2023-04-28T09:25:57.279Z,101148.78
2023-04-28T09:28:25.267Z,101142.78
2023-04-28T09:30:54.646Z,101143.13
2023-04-28T09:33:22.766Z,101146.03
2023-04-28T09:35:50.787Z,101142.59
2023-04-28T09:38:20.614Z,101128.13
2023-04-28T09:40:57.009Z,101136.50
2023-04-28T09:43:26.706Z,101131.53
2023-04-28T09:45:56.805Z,101132.06
2023-04-28T09:48:33.676Z,101130.03
2023-04-28T09:51:02.889Z,101117.78
2023-04-28T09:53:31.859Z,101119.63
2023-04-28T09:56:02.516Z,101114.25
2023-04-28T09:58:32.919Z,101115.44
2023-04-28T10:01:03.141Z,101117.84
2023-04-28T10:03:32.242Z,101116.31
2023-04-28T10:06:00.534Z,101098.38
2023-04-28T10:08:28.603Z,101105.06
2023-04-28T10:10:57.808Z,101102.63
2023-04-28T10:13:26.021Z,101096.47
2023-04-28T10:15:55.702Z,101097.19
2023-04-28T10:18:25.802Z,101094.44
2023-04-28T10:20:58.750Z,101094.97
2023-04-28T10:23:52.848Z,101092.88
2023-04-28T10:26:21.911Z,101088.44
2023-04-28T10:28:51.109Z,101072.56
2023-04-28T10:31:21.167Z,101062.63
2023-04-28T10:33:50.866Z,101072.50
2023-04-28T10:36:48.676Z,101070.94
2023-04-28T10:39:16.851Z,101071.59
2023-04-28T10:41:46.558Z,101072.78
2023-04-28T10:44:45.436Z,101074.09
2023-04-28T10:47:13.506Z,101072.56
2023-04-28T10:50:10.538Z,101073.78
2023-04-28T10:53:00.531Z,101072.56
2023-04-28T10:55:32.907Z,101079.06
2023-04-28T10:58:32.581Z,101064.69
2023-04-28T11:01:28.394Z,101064.34
2023-04-28T11:04:08.365Z,101060.63
2023-04-28T11:06:40.640Z,101067.25
2023-04-28T11:09:38.807Z,101063.16
2023-04-28T11:12:10.794Z,101060.13
2023-04-28T11:14:40.720Z,101056.69
2023-04-28T11:17:13.094Z,101062.16
2023-04-28T11:19:42.661Z,101058.75
2023-04-28T11:22:18.254Z,101051.44
2023-04-28T11:24:57.712Z,101051.94
2023-04-28T11:27:25.928Z,101053.28
2023-04-28T11:29:54.272Z,101050.34
2023-04-28T11:32:29.015Z,101046.28
2023-04-28T11:34:57.484Z,101040.81
2023-04-28T11:37:27.340Z,101039.41
2023-04-28T11:39:55.607Z,101036.50
2023-04-28T11:42:25.914Z,101035.72
2023-04-28T11:44:55.438Z,101034.84
2023-04-28T11:47:31.389Z,101019.44
2023-04-28T11:49:59.541Z,101014.44
2023-04-28T11:52:28.721Z,101015.78
2023-04-28T11:54:57.893Z,101016.16
2023-04-28T11:57:26.626Z,101024.16
2023-04-28T11:59:54.589Z,101019.75
2023-04-28T12:02:28.425Z,101023.16
2023-04-28T12:04:56.681Z,101025.88
2023-04-28T12:07:25.102Z,101016.66
2023-04-28T12:10:13.476Z,101008.25
2023-04-28T12:12:50.775Z,101006.72
2023-04-28T12:15:22.378Z,101015.59
2023-04-28T12:17:51.767Z,101014.09
2023-04-28T12:20:36.499Z,101009.09
2023-04-28T12:23:05.439Z,101009.16
2023-04-28T12:25:35.989Z,101012.56
2023-04-28T12:28:05.526Z,101008.13
2023-04-28T12:30:35.051Z,101011.72
2023-04-28T12:33:03.275Z,101007.75
2023-04-28T12:35:31.440Z,101003.34
2023-04-28T12:37:59.506Z,101012.03
2023-04-28T12:40:27.450Z,101002.78
2023-04-28T12:42:56.951Z,101008.94
2023-04-28T12:45:24.906Z,101004.97
2023-04-28T12:47:52.657Z,100999.69
2023-04-28T12:50:20.719Z,100998.50
2023-04-28T12:52:48.480Z,100995.41
2023-04-28T12:55:16.528Z,100994.34
2023-04-28T12:57:44.304Z,100992.94
2023-04-28T13:00:16.301Z,100996.38
2023-04-28T13:02:45.395Z,100989.47
2023-04-28T13:05:14.451Z,100987.81
2023-04-28T13:07:42.377Z,100979.03
2023-04-28T13:10:10.822Z,100967.72
2023-04-28T13:12:38.815Z,100976.91
2023-04-28T13:15:07.962Z,100971.75
2023-04-28T13:17:37.153Z,100962.69
2023-04-28T13:20:06.737Z,100964.06
2023-04-28T13:22:34.747Z,100961.03
2023-04-28T13:25:02.812Z,100963.28
2023-04-28T13:27:31.303Z,100968.78
2023-04-28T13:29:59.320Z,100965.19
2023-04-28T13:32:28.134Z,100959.03
2023-04-28T13:34:57.806Z,100969.31
2023-04-28T13:37:25.638Z,100958.34
2023-04-28T13:39:53.402Z,100965.53
2023-04-28T13:42:21.642Z,100959.03
2023-04-28T13:44:49.540Z,100961.41
2023-04-28T13:47:17.322Z,100976.13
2023-04-28T13:49:45.064Z,100960.56
2023-04-28T13:52:14.166Z,100963.94
2023-04-28T13:54:43.034Z,100964.63
2023-04-28T13:57:13.442Z,100962.56
2023-04-28T13:59:41.355Z,100956.22
2023-04-28T14:02:09.593Z,100959.81
2023-04-28T14:04:37.735Z,100960.84
2023-04-28T14:07:05.697Z,100960.72
2023-04-28T14:09:34.798Z,100965.72
2023-04-28T14:12:02.764Z,100969.31
2023-04-28T14:14:30.928Z,100982.81
2023-04-28T14:16:58.918Z,100983.00
2023-04-28T14:19:28.173Z,100971.38
2023-04-28T14:21:56.412Z,100972.91
2023-04-28T14:24:24.490Z,100957.34
2023-04-28T14:26:53.674Z,100960.94
2023-04-28T14:29:21.551Z,100959.88
2023-04-28T14:31:49.386Z,100959.69
2023-04-28T14:34:17.147Z,100952.34
2023-04-28T14:36:45.003Z,100952.88
2023-04-28T14:39:12.827Z,100953.75
2023-04-28T14:41:41.098Z,100942.78
2023-04-28T14:44:10.547Z,100944.88
2023-04-28T14:46:38.654Z,100948.63
2023-04-28T14:49:09.205Z,100943.53
2023-04-28T14:51:37.004Z,100951.25
2023-04-28T14:54:05.470Z,100954.53
2023-04-28T14:56:33.987Z,100952.56
2023-04-28T14:59:01.789Z,100951.72
2023-04-28T15:01:32.065Z,100944.34
2023-04-28T15:04:00.240Z,100940.06
2023-04-28T15:06:28.213Z,100924.84
2023-04-28T15:08:56.485Z,100938.72
2023-04-28T15:11:24.743Z,100924.50
2023-04-28T15:13:52.573Z,100917.13
2023-04-28T15:16:20.932Z,100917.84
2023-04-28T15:18:50.307Z,100904.00
2023-04-28T15:21:18.138Z,100914.59
2023-04-28T15:23:46.247Z,100918.53
2023-04-28T15:26:13.986Z,100923.72
2023-04-28T15:28:41.938Z,100929.88
2023-04-28T15:31:09.923Z,100918.13
2023-04-28T15:33:38.193Z,100911.09
2023-04-28T15:36:08.579Z,100907.84
2023-04-28T15:38:36.764Z,100903.88
2023-04-28T15:41:05.482Z,100905.41
2023-04-28T15:43:33.188Z,100903.34
2023-04-28T15:46:02.270Z,100901.66
2023-04-28T15:48:30.124Z,100897.69
2023-04-28T15:50:58.684Z,100893.28
2023-04-28T15:53:27.966Z,100886.09
2023-04-28T15:55:56.000Z,100894.41
2023-04-28T15:58:26.742Z,100898.00
2023-04-28T16:00:54.604Z,100899.38
2023-04-28T16:03:22.662Z,100904.50
2023-04-28T16:05:51.100Z,100904.50
2023-04-28T16:08:19.556Z,100907.22
2023-04-28T16:10:48.659Z,100907.88
2023-04-28T16:13:16.869Z,100905.16
2023-04-28T16:15:45.859Z,100906.91
2023-04-28T16:18:13.936Z,100903.28
2023-04-28T16:20:42.156Z,100902.41
2023-04-28T16:23:12.694Z,100908.91
2023-04-28T16:25:44.766Z,100916.09
2023-04-28T16:28:13.981Z,100913.72
2023-04-28T16:30:41.899Z,100918.81
2023-04-28T16:33:09.903Z,100923.06
2023-04-28T16:35:38.163Z,100924.63
2023-04-28T16:38:06.052Z,100927.72
2023-04-28T16:40:33.915Z,100929.41
2023-04-28T16:43:02.238Z,100928.53
2023-04-28T16:45:31.895Z,100926.00
2023-04-28T16:47:59.843Z,100924.78
2023-04-28T16:50:27.949Z,100917.44
2023-04-28T16:52:55.855Z,100930.09
2023-04-28T16:55:24.158Z,100925.66
2023-04-28T16:57:52.164Z,100925.28
2023-04-28T17:00:21.378Z,100929.25
2023-04-28T17:02:50.744Z,100935.56
2023-04-28T17:05:18.862Z,100929.25
2023-04-28T17:07:46.606Z,100919.16
2023-04-28T17:10:14.517Z,100925.28
2023-04-28T17:12:45.201Z,100929.03
2023-04-28T17:15:17.174Z,100922.19
2023-04-28T17:17:45.483Z,100925.59
2023-04-28T17:20:20.091Z,100925.59
2023-04-28T17:22:48.682Z,100931.25
2023-04-28T17:25:17.551Z,100934.16
2023-04-28T17:27:45.430Z,100930.91
2023-04-28T17:30:13.622Z,100929.03
2023-04-28T17:32:41.562Z,100931.59
2023-04-28T17:35:10.415Z,100943.78
2023-04-28T17:37:39.747Z,100953.75
2023-04-28T17:40:09.059Z,100954.63
2023-04-28T17:42:37.141Z,100952.22
2023-04-28T17:45:07.395Z,100956.31
2023-04-28T17:47:35.209Z,100960.22
2023-04-28T17:50:03.935Z,100970.44
2023-04-28T17:52:32.367Z,100961.38
2023-04-28T17:55:01.487Z,100970.63
2023-04-28T17:57:29.503Z,100969.59
2023-04-28T17:59:57.990Z,100969.59
2023-04-28T18:02:26.655Z,100971.97
2023-04-28T18:04:54.668Z,100973.19
2023-04-28T18:07:22.631Z,100972.81
2023-04-28T18:09:50.515Z,100973.00
2023-04-28T18:12:19.927Z,100975.91
2023-04-28T18:14:48.038Z,100983.47
2023-04-28T18:17:15.916Z,100987.22
2023-04-28T18:19:43.823Z,100991.72
2023-04-28T18:22:12.029Z,100989.50
2023-04-28T18:24:39.904Z,100994.63
2023-04-28T18:27:07.648Z,101000.75
2023-04-28T18:29:36.806Z,101006.47
2023-04-28T18:32:05.146Z,101008.69
2023-04-28T18:34:33.205Z,101012.34
2023-04-28T18:37:01.048Z,101007.91
2023-04-28T18:39:29.256Z,101019.94
2023-04-28T18:41:58.641Z,101016.00
2023-04-28T18:44:26.506Z,101015.50
2023-04-28T18:46:56.065Z,101019.91
2023-04-28T18:49:24.968Z,101016.16
2023-04-28T18:51:52.727Z,101018.53
2023-04-28T18:54:20.641Z,101021.28
2023-04-28T18:56:49.023Z,101025.06
2023-04-28T18:59:16.990Z,101035.47
2023-04-28T19:01:44.838Z,101032.00
2023-04-28T19:04:14.673Z,101035.28
2023-04-28T19:06:44.019Z,101037.69
2023-04-28T19:09:12.085Z,101044.00
2023-04-28T19:11:40.643Z,101051.69
2023-04-28T19:14:08.868Z,101048.97
2023-04-28T19:16:36.765Z,101053.25
2023-04-28T19:19:04.782Z,101055.47
2023-04-28T19:21:43.145Z,101058.38
2023-04-28T19:24:11.835Z,101068.75
2023-04-28T19:26:40.716Z,101074.22
2023-04-28T19:29:08.496Z,101078.31
2023-04-28T19:31:36.275Z,101086.38
2023-04-28T19:34:04.444Z,101094.06
2023-04-28T19:36:32.803Z,101095.09
2023-04-28T19:39:02.090Z,101088.75
2023-04-28T19:41:29.966Z,101095.78
2023-04-28T19:43:58.557Z,101107.06
2023-04-28T19:46:29.577Z,101100.91
2023-04-28T19:49:00.421Z,101106.38
2023-04-28T19:51:36.850Z,101110.47
2023-04-28T19:54:06.130Z,101108.44
2023-04-28T19:56:35.164Z,101112.69
2023-04-28T19:59:03.552Z,101121.44
2023-04-28T20:01:31.448Z,101122.94
2023-04-28T20:04:00.458Z,101127.75
2023-04-28T20:06:28.781Z,101125.00
2023-04-28T20:08:56.697Z,101138.13
2023-04-28T20:11:26.416Z,101134.22
2023-04-28T20:13:54.544Z,101129.25
2023-04-28T20:16:25.704Z,101130.81
2023-04-28T20:18:53.845Z,101142.44
2023-04-28T20:21:21.747Z,101137.44
2023-04-28T20:23:50.655Z,101143.63
2023-04-28T20:26:18.639Z,101141.03
2023-04-28T20:28:48.650Z,101148.06
2023-04-28T20:31:16.714Z,101146.84
2023-04-28T20:33:44.451Z,101151.47
2023-04-28T20:36:13.966Z,101156.25
2023-04-28T20:38:42.427Z,101164.97
2023-04-28T20:41:10.409Z,101161.88
2023-04-28T20:43:38.838Z,101158.63
2023-04-28T20:46:12.967Z,101161.72
2023-04-28T20:48:41.160Z,101176.41
2023-04-28T20:51:10.815Z,101169.41
2023-04-28T20:53:39.647Z,101165.66
2023-04-28T20:56:08.454Z,101171.63
2023-04-28T20:58:36.380Z,101174.69
2023-04-28T21:01:04.301Z,101175.72
2023-04-28T21:03:33.556Z,101181.00
2023-04-28T21:06:01.334Z,101183.41
2023-04-28T21:08:30.135Z,101183.22
2023-04-28T21:10:58.084Z,101181.88
2023-04-28T21:13:25.947Z,101183.06
2023-04-28T21:15:56.033Z,101186.78
2023-04-28T21:18:24.024Z,101188.53
2023-04-28T21:20:54.735Z,101190.91
2023-04-28T21:23:22.756Z,101188.53
2023-04-28T21:25:50.806Z,101200.31
2023-04-28T21:28:18.658Z,101199.91
2023-04-28T21:30:46.405Z,101209.16
2023-04-28T21:33:14.253Z,101205.06
2023-04-28T21:35:42.146Z,101205.38
2023-04-28T21:38:12.228Z,101214.47
2023-04-28T21:40:40.029Z,101208.66
2023-04-28T21:43:08.259Z,101216.00
2023-04-28T21:45:36.228Z,101211.53
2023-04-28T21:48:04.127Z,101219.06
2023-04-28T21:50:31.969Z,101235.13
2023-04-28T21:52:59.751Z,101235.94
2023-04-28T21:55:28.889Z,101243.97
2023-04-28T21:57:58.800Z,101243.31
2023-04-28T22:00:28.195Z,101238.84
2023-04-28T22:02:58.396Z,101247.72
2023-04-28T22:05:26.302Z,101253.56
2023-04-28T22:07:54.054Z,101256.78
2023-04-28T22:10:22.762Z,101259.16
2023-04-28T22:12:51.844Z,101266.84
2023-04-28T22:15:19.725Z,101271.97
2023-04-28T22:17:47.728Z,101273.16
2023-04-28T22:20:15.573Z,101273.84
2023-04-28T22:22:43.414Z,101290.22
2023-04-28T22:25:11.610Z,101291.22
2023-04-28T22:27:39.994Z,101284.38
2023-04-28T22:30:10.820Z,101291.03
2023-04-28T22:32:38.595Z,101297.69
2023-04-28T22:35:07.424Z,101299.88
2023-04-28T22:37:35.496Z,101300.75
2023-04-28T22:40:04.660Z,101306.66
2023-04-28T22:42:32.471Z,101306.84
2023-04-28T22:45:02.586Z,101308.84
2023-04-28T22:47:32.794Z,101313.69
2023-04-28T22:50:00.583Z,101313.22
2023-04-28T22:52:28.634Z,101306.22
2023-04-28T22:54:56.688Z,101322.78
2023-04-28T22:57:24.485Z,101314.41
2023-04-28T22:59:52.597Z,101323.47
2023-04-28T23:02:21.024Z,101321.94
2023-04-28T23:04:50.571Z,101324.34
2023-04-28T23:07:18.462Z,101329.94
2023-04-28T23:09:46.181Z,101325.47
2023-04-28T23:12:13.847Z,101331.59
2023-04-28T23:14:41.616Z,101323.94
2023-04-28T23:17:09.375Z,101321.53
2023-04-28T23:19:38.900Z,101322.13
2023-04-28T23:22:08.505Z,101327.41
2023-04-28T23:24:37.081Z,101328.75
2023-04-28T23:27:05.322Z,101332.25
2023-04-28T23:29:33.522Z,101333.94
2023-04-28T23:32:01.294Z,101340.78
2023-04-28T23:34:31.102Z,101341.25
2023-04-28T23:37:00.374Z,101342.97
2023-04-28T23:39:30.118Z,101352.22
2023-04-28T23:41:58.638Z,101346.94
2023-04-28T23:44:26.394Z,101342.72
2023-04-28T23:46:56.010Z,101348.44
2023-04-28T23:49:23.970Z,101354.91
2023-04-28T23:51:51.660Z,101349.28
2023-04-28T23:54:19.358Z,101349.28
2023-04-28T23:56:48.396Z,101348.13
2023-04-28T23:59:16.098Z,101357.31
